createdAt,value
2018-06-14T00:01:29.112Z,8.20
2018-06-14T00:03:57.417Z,6.67
2018-06-14T00:06:25.937Z,7.00
2018-06-14T00:08:54.879Z,5.87
2018-06-14T00:11:23.213Z,6.53
2018-06-14T00:13:51.716Z,9.90
2018-06-14T00:16:20.319Z,14.10
2018-06-14T00:18:48.931Z,8.30
2018-06-14T00:21:17.279Z,6.47
2018-06-14T00:23:45.641Z,8.03
2018-06-14T00:26:14.227Z,5.90
2018-06-14T00:28:42.805Z,7.53
2018-06-14T00:31:11.141Z,7.10
2018-06-14T00:33:39.484Z,6.53
2018-06-14T00:36:07.916Z,6.83
2018-06-14T00:38:36.336Z,8.40
2018-06-14T00:41:05.032Z,6.17
2018-06-14T00:43:33.400Z,6.70
2018-06-14T00:46:01.736Z,6.73
2018-06-14T00:48:30.228Z,7.70
2018-06-14T00:50:59.594Z,8.50
2018-06-14T00:53:28.116Z,7.70
2018-06-14T00:55:56.456Z,6.07
2018-06-14T00:58:25.011Z,9.97
2018-06-14T01:00:53.395Z,6.00
2018-06-14T01:03:21.979Z,8.03
2018-06-14T01:05:50.447Z,5.87
2018-06-14T01:08:19.027Z,5.80
2018-06-14T01:10:47.591Z,5.22
2018-06-14T01:13:16.022Z,6.40
2018-06-14T01:15:44.309Z,6.20
2018-06-14T01:18:12.621Z,8.97
2018-06-14T01:20:40.916Z,6.80
2018-06-14T01:23:09.295Z,5.53
2018-06-14T01:25:37.593Z,6.50
2018-06-14T01:28:06.268Z,9.90
2018-06-14T01:30:34.896Z,9.70
2018-06-14T01:33:03.313Z,6.30
2018-06-14T01:35:31.648Z,6.83
2018-06-14T01:38:11.420Z,6.12
2018-06-14T01:40:39.979Z,4.55
2018-06-14T01:43:08.324Z,5.03
2018-06-14T01:45:36.617Z,4.97
2018-06-14T01:48:04.931Z,5.73
2018-06-14T01:50:33.232Z,4.87
2018-06-14T01:53:02.121Z,6.30
2018-06-14T01:55:32.703Z,4.45
2018-06-14T01:58:01.387Z,5.30
2018-06-14T02:00:29.907Z,6.10
2018-06-14T02:02:58.531Z,4.40
2018-06-14T02:05:27.599Z,4.45
2018-06-14T02:07:56.049Z,7.40
2018-06-14T02:10:25.701Z,5.40
2018-06-14T02:12:54.063Z,7.43
2018-06-14T02:15:22.410Z,7.23
2018-06-14T02:17:51.469Z,6.43
2018-06-14T02:20:20.077Z,5.72
2018-06-14T02:22:48.435Z,4.40
2018-06-14T02:25:16.849Z,5.90
2018-06-14T02:27:45.531Z,5.97
2018-06-14T02:30:14.307Z,4.62
2018-06-14T02:32:42.693Z,8.30
2018-06-14T02:35:11.371Z,5.00
2018-06-14T02:37:41.719Z,6.87
2018-06-14T02:40:12.775Z,5.57
2018-06-14T02:42:42.171Z,6.15
2018-06-14T02:45:10.855Z,4.97
2018-06-14T02:47:39.319Z,5.87
2018-06-14T02:50:08.833Z,5.60
2018-06-14T02:52:37.438Z,9.03
2018-06-14T02:55:06.420Z,7.47
2018-06-14T02:57:34.791Z,6.50
2018-06-14T03:00:03.175Z,5.00
2018-06-14T03:02:31.641Z,6.20
2018-06-14T03:05:00.243Z,6.20
2018-06-14T03:07:33.055Z,4.80
2018-06-14T03:10:02.004Z,5.73
2018-06-14T03:12:30.800Z,5.30
2018-06-14T03:14:59.327Z,8.13
2018-06-14T03:17:28.035Z,5.87
2018-06-14T03:19:56.644Z,5.25
2018-06-14T03:22:26.059Z,4.67
2018-06-14T03:24:54.670Z,5.20
2018-06-14T03:27:23.189Z,4.80
2018-06-14T03:29:51.655Z,7.60
2018-06-14T03:33:01.881Z,7.40
2018-06-14T03:35:30.378Z,4.50
2018-06-14T03:37:58.973Z,6.65
2018-06-14T03:40:27.692Z,5.67
2018-06-14T03:42:56.100Z,5.53
2018-06-14T03:45:30.385Z,5.65
2018-06-14T03:47:58.731Z,7.70
2018-06-14T03:50:27.075Z,8.23
2018-06-14T03:52:55.677Z,10.20
2018-06-14T03:55:24.347Z,10.53
2018-06-14T03:57:52.938Z,9.53
2018-06-14T04:00:21.605Z,5.90
2018-06-14T04:02:49.944Z,6.42
2018-06-14T04:05:18.304Z,9.27
2018-06-14T04:07:46.677Z,7.27
2018-06-14T04:10:15.053Z,7.73
2018-06-14T04:12:43.688Z,5.80
2018-06-14T04:15:12.152Z,4.37
2018-06-14T04:17:40.775Z,5.50
2018-06-14T04:20:09.120Z,5.00
2018-06-14T04:22:37.480Z,7.20
2018-06-14T04:25:06.035Z,4.97
2018-06-14T04:27:34.573Z,8.13
2018-06-14T04:30:03.176Z,5.75
2018-06-14T04:32:31.555Z,10.03
2018-06-14T04:34:59.999Z,5.57
2018-06-14T04:37:28.636Z,4.97
2018-06-14T04:39:57.252Z,5.12
2018-06-14T04:42:25.751Z,7.03
2018-06-14T04:44:54.355Z,5.20
2018-06-14T04:47:22.708Z,5.70
2018-06-14T04:49:51.048Z,6.87
2018-06-14T04:52:19.664Z,6.80
2018-06-14T04:54:49.032Z,4.70
2018-06-14T04:57:17.712Z,5.50
2018-06-14T04:59:46.071Z,4.80
2018-06-14T05:02:14.512Z,7.50
2018-06-14T05:04:42.859Z,4.33
2018-06-14T05:07:18.085Z,4.30
2018-06-14T05:09:46.444Z,5.37
2018-06-14T05:12:15.108Z,5.30
2018-06-14T05:14:43.552Z,5.93
2018-06-14T05:17:12.133Z,4.00
2018-06-14T05:19:40.472Z,7.03
2018-06-14T05:22:08.838Z,5.20
2018-06-14T05:24:37.844Z,9.53
2018-06-14T05:27:06.368Z,4.40
2018-06-14T05:29:35.659Z,5.77
2018-06-14T05:32:04.361Z,4.57
2018-06-14T05:34:32.749Z,6.30
2018-06-14T05:37:01.743Z,4.87
2018-06-14T05:39:30.300Z,5.00
2018-06-14T05:41:58.980Z,6.95
2018-06-14T05:44:27.612Z,5.75
2018-06-14T05:46:56.196Z,10.40
2018-06-14T05:49:24.536Z,5.03
2018-06-14T05:51:53.136Z,4.15
2018-06-14T05:54:21.588Z,4.30
2018-06-14T05:56:49.924Z,4.73
2018-06-14T05:59:18.896Z,5.70
2018-06-14T06:01:47.497Z,6.37
2018-06-14T06:04:16.727Z,4.83
2018-06-14T06:06:45.135Z,3.97
2018-06-14T06:09:13.580Z,6.93
2018-06-14T06:11:42.191Z,5.10
2018-06-14T06:14:11.060Z,5.58
2018-06-14T06:16:40.043Z,4.28
2018-06-14T06:19:08.391Z,4.00
2018-06-14T06:21:37.003Z,4.35
2018-06-14T06:24:05.581Z,4.03
2018-06-14T06:26:34.211Z,4.73
2018-06-14T06:29:02.797Z,4.20
2018-06-14T06:31:31.407Z,5.72
2018-06-14T06:33:59.996Z,5.90
2018-06-14T06:36:28.448Z,4.43
2018-06-14T06:38:56.774Z,3.83
2018-06-14T06:41:25.472Z,3.10
2018-06-14T06:43:54.038Z,3.00
2018-06-14T06:46:22.760Z,3.27
2018-06-14T06:48:51.102Z,3.97
2018-06-14T06:51:19.439Z,5.13
2018-06-14T06:53:47.966Z,3.20
2018-06-14T06:56:16.436Z,3.10
2018-06-14T06:58:44.854Z,3.33
2018-06-14T07:01:13.944Z,6.30
2018-06-14T07:03:42.292Z,3.13
2018-06-14T07:06:11.019Z,3.42
2018-06-14T07:08:39.468Z,3.33
2018-06-14T07:11:09.018Z,4.67
2018-06-14T07:13:37.712Z,3.47
2018-06-14T07:16:06.424Z,7.97
2018-06-14T07:18:35.012Z,4.40
2018-06-14T07:21:03.376Z,3.90
2018-06-14T07:23:31.924Z,6.10
2018-06-14T07:26:00.327Z,2.43
2018-06-14T07:28:28.691Z,3.00
2018-06-14T07:30:57.243Z,3.83
2018-06-14T07:33:25.851Z,4.25
2018-06-14T07:35:54.281Z,2.27
2018-06-14T07:38:22.940Z,2.13
2018-06-14T07:40:51.630Z,3.70
2018-06-14T07:43:19.971Z,2.70
2018-06-14T07:45:48.599Z,2.20
2018-06-14T07:48:17.200Z,3.55
2018-06-14T07:50:45.788Z,2.30
2018-06-14T07:53:14.516Z,2.47
2018-06-14T07:55:43.126Z,4.90
2018-06-14T07:58:12.086Z,3.02
2018-06-14T08:00:41.204Z,2.20
2018-06-14T08:03:10.200Z,2.30
2018-06-14T08:05:38.794Z,2.03
2018-06-14T08:08:07.596Z,3.08
2018-06-14T08:10:36.207Z,3.77
2018-06-14T08:13:04.564Z,1.97
2018-06-14T08:15:33.184Z,4.33
2018-06-14T08:18:01.528Z,2.43
2018-06-14T08:20:30.551Z,3.27
2018-06-14T08:22:59.228Z,2.40
2018-06-14T08:25:27.576Z,3.47
2018-06-14T08:27:56.212Z,1.43
2018-06-14T08:30:24.862Z,2.45
2018-06-14T08:32:53.228Z,2.00
2018-06-14T08:35:22.361Z,2.00
2018-06-14T08:37:50.887Z,1.50
2018-06-14T08:40:19.263Z,2.33
2018-06-14T08:42:47.623Z,1.70
2018-06-14T08:45:15.963Z,2.60
2018-06-14T08:47:44.585Z,2.30
2018-06-14T08:50:13.063Z,2.17
2018-06-14T08:52:41.765Z,1.60
2018-06-14T08:55:10.339Z,3.10
2018-06-14T08:57:38.701Z,4.83
2018-06-14T09:00:49.181Z,1.77
2018-06-14T09:03:17.520Z,1.50
2018-06-14T09:05:45.849Z,1.67
2018-06-14T09:08:14.325Z,1.50
2018-06-14T09:10:43.622Z,2.53
2018-06-14T09:13:12.095Z,7.17
2018-06-14T09:15:40.762Z,1.77
2018-06-14T09:18:10.724Z,3.00
2018-06-14T09:20:39.139Z,1.20
2018-06-14T09:23:07.739Z,1.00
2018-06-14T09:25:36.435Z,1.87
2018-06-14T09:28:04.840Z,1.43
2018-06-14T09:30:33.168Z,1.13
2018-06-14T09:33:01.524Z,1.13
2018-06-14T09:35:29.867Z,1.43
2018-06-14T09:37:58.241Z,3.90
2018-06-14T09:40:26.909Z,2.03
2018-06-14T09:42:55.355Z,2.73
2018-06-14T09:45:23.917Z,2.63
2018-06-14T09:47:53.179Z,1.70
2018-06-14T09:50:21.842Z,2.97
2018-06-14T09:52:50.594Z,2.50
2018-06-14T09:55:19.067Z,1.90
2018-06-14T09:57:47.397Z,3.40
2018-06-14T10:00:16.629Z,2.30
2018-06-14T10:02:45.019Z,3.07
2018-06-14T10:05:13.454Z,3.70
2018-06-14T10:07:42.043Z,1.83
2018-06-14T10:10:10.725Z,1.97
2018-06-14T10:12:39.785Z,2.47
2018-06-14T10:15:08.303Z,2.30
2018-06-14T10:17:36.823Z,1.50
2018-06-14T10:20:05.192Z,1.50
2018-06-14T10:22:33.637Z,3.40
2018-06-14T10:25:02.568Z,1.63
2018-06-14T10:27:31.126Z,1.83
2018-06-14T10:29:59.445Z,1.50
2018-06-14T10:32:27.800Z,1.20
2018-06-14T10:34:56.112Z,1.43
2018-06-14T10:37:24.421Z,1.80
2018-06-14T10:39:52.856Z,1.63
2018-06-14T10:42:21.148Z,1.60
2018-06-14T10:44:49.738Z,1.50
2018-06-14T10:47:18.112Z,2.63
2018-06-14T10:49:46.400Z,1.60
2018-06-14T10:52:14.696Z,1.87
2018-06-14T10:54:43.348Z,2.40
2018-06-14T10:57:11.640Z,4.13
2018-06-14T10:59:40.016Z,2.43
2018-06-14T11:02:08.548Z,1.67
2018-06-14T11:04:37.127Z,1.70
2018-06-14T11:07:05.427Z,1.83
2018-06-14T11:09:33.737Z,1.33
2018-06-14T11:12:02.036Z,5.10
2018-06-14T11:14:30.704Z,1.20
2018-06-14T11:16:59.347Z,1.33
2018-06-14T11:19:27.691Z,0.80
2018-06-14T11:21:56.266Z,13.88
2018-06-14T11:24:24.899Z,2.62
2018-06-14T11:26:53.209Z,5.07
2018-06-14T11:29:21.512Z,1.10
2018-06-14T11:31:49.979Z,1.10
2018-06-14T11:34:18.295Z,1.40
2018-06-14T11:36:46.760Z,2.27
2018-06-14T11:39:15.239Z,2.00
2018-06-14T11:41:43.889Z,1.40
2018-06-14T11:44:12.229Z,1.00
2018-06-14T11:46:40.532Z,1.40
2018-06-14T11:49:08.959Z,1.70
2018-06-14T11:51:37.528Z,1.15
2018-06-14T11:54:06.155Z,1.10
2018-06-14T11:56:35.294Z,1.20
2018-06-14T11:59:04.148Z,1.30
2018-06-14T12:01:32.733Z,2.50
2018-06-14T12:04:01.041Z,1.27
2018-06-14T12:06:29.433Z,1.30
2018-06-14T12:08:57.764Z,4.33
2018-06-14T12:11:26.432Z,2.70
2018-06-14T12:13:54.996Z,1.90
2018-06-14T12:16:23.534Z,1.43
2018-06-14T12:18:52.116Z,1.20
2018-06-14T12:21:20.756Z,1.93
2018-06-14T12:23:49.172Z,1.33
2018-06-14T12:26:17.583Z,1.50
2018-06-14T12:28:46.139Z,0.90
2018-06-14T12:31:15.396Z,1.10
2018-06-14T12:33:43.687Z,2.00
2018-06-14T12:36:11.973Z,1.30
2018-06-14T12:38:40.549Z,3.00
2018-06-14T12:41:08.872Z,1.10
2018-06-14T12:43:37.519Z,1.37
2018-06-14T12:46:06.013Z,1.50
2018-06-14T12:48:34.480Z,1.00
2018-06-14T12:51:03.076Z,1.40
2018-06-14T12:53:31.370Z,2.47
2018-06-14T12:55:59.712Z,1.93
2018-06-14T12:58:28.024Z,2.10
2018-06-14T13:00:56.344Z,2.53
2018-06-14T13:03:24.684Z,1.30
2018-06-14T13:05:53.252Z,1.92
2018-06-14T13:08:21.548Z,1.20
2018-06-14T13:10:49.735Z,4.77
2018-06-14T13:13:18.159Z,1.43
2018-06-14T13:15:46.568Z,2.13
2018-06-14T13:18:15.327Z,1.50
2018-06-14T13:20:43.687Z,1.50
2018-06-14T13:23:12.041Z,1.10
2018-06-14T13:25:40.697Z,1.43
2018-06-14T13:28:09.331Z,1.40
2018-06-14T13:30:37.932Z,4.35
2018-06-14T13:33:06.377Z,1.00
2018-06-14T13:35:35.216Z,1.93
2018-06-14T13:38:03.589Z,3.17
2018-06-14T13:40:32.528Z,1.67
2018-06-14T13:43:01.207Z,1.40
2018-06-14T13:45:29.816Z,2.42
2018-06-14T13:47:58.416Z,1.60
2018-06-14T13:50:27.038Z,1.40
2018-06-14T13:52:55.426Z,1.20
2018-06-14T13:55:24.231Z,1.57
2018-06-14T13:57:52.951Z,1.00
2018-06-14T14:00:21.716Z,1.30
2018-06-14T14:02:50.333Z,1.73
2018-06-14T14:05:19.112Z,1.33
2018-06-14T14:07:47.488Z,3.17
2018-06-14T14:10:16.088Z,1.63
2018-06-14T14:12:44.461Z,1.50
2018-06-14T14:15:13.089Z,3.90
2018-06-14T14:17:41.512Z,1.50
2018-06-14T14:20:09.860Z,1.20
2018-06-14T14:22:38.017Z,1.03
2018-06-14T14:25:06.649Z,4.43
2018-06-14T14:27:35.263Z,1.27
2018-06-14T14:30:03.703Z,3.30
2018-06-14T14:32:31.803Z,1.10
2018-06-14T14:35:00.509Z,1.57
2018-06-14T14:37:29.164Z,2.13
2018-06-14T14:39:57.509Z,1.07
2018-06-14T14:42:25.913Z,2.67
2018-06-14T14:44:54.276Z,1.20
2018-06-14T14:47:22.617Z,1.27
2018-06-14T14:49:50.936Z,1.20
2018-06-14T14:52:19.323Z,1.10
2018-06-14T14:54:47.960Z,1.07
2018-06-14T14:57:16.312Z,2.60
2018-06-14T14:59:44.936Z,2.08
2018-06-14T15:02:13.576Z,0.83
2018-06-14T15:04:42.176Z,1.70
2018-06-14T15:07:10.664Z,1.20
2018-06-14T15:09:38.735Z,2.03
2018-06-14T15:12:07.332Z,1.77
2018-06-14T15:14:36.094Z,1.75
2018-06-14T15:17:04.726Z,1.70
2018-06-14T15:19:33.071Z,1.90
2018-06-14T15:22:01.730Z,1.52
2018-06-14T15:24:30.345Z,1.30
2018-06-14T15:26:58.717Z,1.43
2018-06-14T15:29:27.450Z,1.57
2018-06-14T15:31:56.011Z,1.40
2018-06-14T15:34:24.357Z,2.53
2018-06-14T15:36:52.747Z,1.17
2018-06-14T15:39:21.405Z,1.30
2018-06-14T15:41:49.707Z,1.93
2018-06-14T15:44:18.409Z,1.40
2018-06-14T15:46:46.855Z,2.40
2018-06-14T15:49:15.379Z,2.17
2018-06-14T15:51:43.805Z,1.30
2018-06-14T15:54:13.924Z,2.30
2018-06-14T15:56:42.873Z,1.83
2018-06-14T15:59:12.389Z,2.40
2018-06-14T16:01:40.989Z,1.43
2018-06-14T16:04:10.179Z,4.60
2018-06-14T16:06:39.038Z,2.80
2018-06-14T16:09:09.299Z,2.77
2018-06-14T16:11:37.768Z,2.00
2018-06-14T16:14:06.793Z,2.70
2018-06-14T16:16:34.882Z,1.80
2018-06-14T16:19:03.353Z,2.00
2018-06-14T16:21:32.002Z,2.98
2018-06-14T16:24:00.856Z,2.83
2018-06-14T16:26:29.421Z,2.00
2018-06-14T16:28:58.089Z,1.73
2018-06-14T16:31:26.429Z,1.87
2018-06-14T16:33:54.874Z,2.57
2018-06-14T16:36:23.501Z,2.35
2018-06-14T16:38:52.108Z,5.50
2018-06-14T16:41:20.457Z,5.57
2018-06-14T16:43:48.812Z,2.53
2018-06-14T16:46:17.157Z,2.33
2018-06-14T16:48:45.512Z,3.43
2018-06-14T16:51:14.052Z,1.80
2018-06-14T16:53:42.400Z,2.63
2018-06-14T16:56:10.752Z,3.70
2018-06-14T16:58:39.099Z,3.60
2018-06-14T17:01:07.428Z,5.43
2018-06-14T17:03:35.848Z,1.70
2018-06-14T17:06:04.879Z,1.75
2018-06-14T17:08:33.859Z,4.15
2018-06-14T17:11:02.268Z,1.47
2018-06-14T17:13:30.653Z,1.60
2018-06-14T17:15:59.293Z,2.15
2018-06-14T17:18:28.240Z,1.67
2018-06-14T17:20:56.737Z,1.77
2018-06-14T17:23:25.089Z,1.83
2018-06-14T17:25:53.516Z,1.90
2018-06-14T17:28:22.148Z,1.60
2018-06-14T17:30:50.505Z,1.60
2018-06-14T17:33:18.998Z,1.50
2018-06-14T17:35:47.768Z,1.57
2018-06-14T17:38:16.362Z,1.70
2018-06-14T17:40:45.041Z,2.73
2018-06-14T17:43:13.706Z,1.27
2018-06-14T17:45:42.512Z,1.47
2018-06-14T17:48:11.189Z,1.60
2018-06-14T17:50:41.276Z,2.20
2018-06-14T17:53:09.608Z,2.07
2018-06-14T17:55:37.984Z,2.60
2018-06-14T17:58:06.612Z,1.50
2018-06-14T18:00:34.964Z,1.73
2018-06-14T18:03:03.584Z,2.00
2018-06-14T18:05:32.276Z,1.90
2018-06-14T18:08:00.899Z,1.57
2018-06-14T18:10:29.235Z,2.20
2018-06-14T18:12:57.676Z,1.83
2018-06-14T18:15:26.034Z,2.90
2018-06-14T18:17:54.667Z,1.50
2018-06-14T18:20:23.562Z,1.80
2018-06-14T18:22:52.275Z,1.73
2018-06-14T18:25:20.715Z,3.20
2018-06-14T18:27:49.039Z,1.73
2018-06-14T18:30:17.671Z,1.83
2018-06-14T18:32:46.385Z,1.75
2018-06-14T18:35:14.861Z,1.70
2018-06-14T18:37:43.499Z,2.13
2018-06-14T18:40:12.083Z,3.92
2018-06-14T18:42:40.457Z,2.03
2018-06-14T18:45:09.053Z,2.90
2018-06-14T18:47:37.360Z,5.10
2018-06-14T18:50:05.684Z,3.63
2018-06-14T18:52:34.045Z,2.07
2018-06-14T18:55:02.620Z,2.60
2018-06-14T18:57:30.944Z,1.83
2018-06-14T19:00:31.889Z,2.13
2018-06-14T19:03:00.515Z,2.27
2018-06-14T19:05:29.175Z,2.42
2018-06-14T19:07:57.723Z,1.83
2018-06-14T19:10:26.608Z,3.10
2018-06-14T19:12:54.980Z,3.40
2018-06-14T19:15:23.387Z,2.30
2018-06-14T19:17:51.956Z,3.40
2018-06-14T19:20:20.375Z,2.40
2018-06-14T19:22:48.736Z,3.73
2018-06-14T19:25:17.244Z,2.90
2018-06-14T19:27:45.525Z,2.00
2018-06-14T19:30:13.818Z,4.03
2018-06-14T19:32:42.398Z,2.20
2018-06-14T19:35:10.676Z,3.70
2018-06-14T19:37:39.308Z,4.30
2018-06-14T19:40:07.687Z,2.77
2018-06-14T19:42:36.524Z,4.90
2018-06-14T19:45:05.352Z,3.00
2018-06-14T19:47:34.027Z,3.73
2018-06-14T19:50:02.946Z,2.72
2018-06-14T19:52:31.596Z,8.43
2018-06-14T19:55:00.309Z,4.50
2018-06-14T19:57:28.950Z,2.33
2018-06-14T19:59:57.611Z,4.17
2018-06-14T20:02:25.928Z,3.83
2018-06-14T20:04:54.443Z,3.43
2018-06-14T20:07:22.993Z,3.23
2018-06-14T20:09:51.638Z,3.90
2018-06-14T20:12:19.933Z,3.03
2018-06-14T20:14:48.513Z,5.72
2018-06-14T20:17:16.868Z,4.07
2018-06-14T20:19:45.433Z,2.83
2018-06-14T20:22:13.796Z,3.80
2018-06-14T20:24:42.134Z,3.53
2018-06-14T20:27:10.749Z,4.97
2018-06-14T20:29:39.088Z,3.47
2018-06-14T20:32:08.056Z,3.02
2018-06-14T20:34:36.159Z,4.77
2018-06-14T20:37:04.654Z,3.30
2018-06-14T20:39:33.070Z,3.20
2018-06-14T20:42:01.662Z,3.83
2018-06-14T20:44:30.218Z,3.10
2018-06-14T20:46:58.819Z,5.27
2018-06-14T20:49:27.467Z,11.85
2018-06-14T20:51:56.205Z,4.00
2018-06-14T20:54:24.707Z,4.80
2018-06-14T20:56:53.287Z,3.83
2018-06-14T20:59:21.844Z,5.57
2018-06-14T21:01:50.193Z,4.80
2018-06-14T21:04:18.523Z,4.30
2018-06-14T21:06:47.070Z,3.90
2018-06-14T21:09:15.415Z,3.90
2018-06-14T21:11:44.085Z,4.28
2018-06-14T21:14:12.441Z,3.93
2018-06-14T21:16:41.133Z,3.83
2018-06-14T21:19:09.755Z,4.20
2018-06-14T21:21:38.366Z,3.65
2018-06-14T21:24:06.974Z,4.58
2018-06-14T21:26:35.409Z,3.70
2018-06-14T21:29:04.253Z,5.93
2018-06-14T21:31:32.931Z,3.90
2018-06-14T21:34:01.538Z,6.30
2018-06-14T21:37:51.524Z,5.28
2018-06-14T21:40:19.873Z,4.43
2018-06-14T21:42:48.224Z,6.73
2018-06-14T21:45:16.698Z,4.90
2018-06-14T21:47:45.044Z,5.63
2018-06-14T21:50:13.453Z,4.40
2018-06-14T21:52:41.836Z,6.67
2018-06-14T21:55:10.536Z,6.50
2018-06-14T21:57:38.911Z,10.47
2018-06-14T22:00:07.548Z,5.17
2018-06-14T22:02:40.304Z,5.43
2018-06-14T22:05:08.780Z,9.30
2018-06-14T22:07:37.391Z,4.57
2018-06-14T22:10:06.191Z,4.90
2018-06-14T22:12:34.633Z,4.50
2018-06-14T22:15:02.989Z,3.50
2018-06-14T22:17:32.032Z,6.20
2018-06-14T22:20:00.440Z,6.47
2018-06-14T22:22:28.822Z,5.43
2018-06-14T22:24:57.204Z,3.87
2018-06-14T22:27:25.603Z,5.17
2018-06-14T22:29:53.967Z,6.50
2018-06-14T22:32:22.308Z,5.20
2018-06-14T22:35:02.244Z,4.97
2018-06-14T22:37:30.831Z,5.23
2018-06-14T22:39:59.554Z,4.33
2018-06-14T22:42:27.924Z,5.27
2018-06-14T22:44:56.477Z,6.93
2018-06-14T22:47:24.827Z,4.90
2018-06-14T22:49:53.460Z,8.63
2018-06-14T22:52:38.641Z,6.73
2018-06-14T22:55:07.276Z,4.60
2018-06-14T22:57:35.892Z,6.65
2018-06-14T23:00:04.606Z,7.85
2018-06-14T23:02:32.988Z,5.37
2018-06-14T23:05:01.543Z,4.87
2018-06-14T23:07:30.181Z,5.70
2018-06-14T23:10:19.816Z,6.10
2018-06-14T23:12:48.443Z,6.63
2018-06-14T23:15:17.911Z,6.30
2018-06-14T23:17:47.631Z,9.90
2018-06-14T23:20:17.377Z,6.20
2018-06-14T23:22:47.015Z,6.40
2018-06-14T23:25:15.608Z,6.30
2018-06-14T23:27:44.424Z,9.13
2018-06-14T23:30:12.863Z,5.37
2018-06-14T23:32:41.493Z,7.90
2018-06-14T23:35:10.447Z,6.57
2018-06-14T23:37:38.967Z,6.33
2018-06-14T23:40:07.341Z,8.27
2018-06-14T23:42:36.003Z,6.30
2018-06-14T23:45:04.587Z,7.20
2018-06-14T23:47:33.065Z,6.53
2018-06-14T23:50:01.710Z,5.12
2018-06-14T23:52:30.344Z,5.83
2018-06-14T23:54:59.124Z,9.40
2018-06-14T23:57:27.562Z,6.80
2018-06-14T23:59:55.920Z,5.83
